Time;durP1;ratioP1;P1;durP2;ratioP2;P2;SDS_P1;SDS_P2;PMS_P1;PMS_P2;Temp;Humidity;BMP_temperature;BMP_pressure;BME280_temperature;BME280_humidity;BME280_pressure;Samples;Min_cycle;Max_cycle;Signal;HPM_P1;HPM_P2
2023/04/15 00:02:23;;;;;;;;;;;;;;;9.89;84.09;98465.00;5068507;28;20023;-82
2023/04/15 00:04:48;;;;;;;;;;;;;;;9.77;85.39;98461.88;5048720;28;20011;-82
2023/04/15 00:07:13;;;;;;;;;;;;;;;9.65;85.33;98468.44;5064712;28;19925;-81
2023/04/15 00:09:40;;;;;;;;;;;;;;;9.40;88.00;98455.25;5050718;28;19986;-81
2023/04/15 00:12:06;;;;;;;;;;;;;;;9.49;87.35;98455.25;5065651;28;19925;-81
2023/04/15 00:14:33;;;;;;;;;;;;;;;9.42;88.28;98452.47;5051893;28;19921;-81
2023/04/15 00:16:58;;;;;;;;;;;;;;;9.53;87.68;98453.94;5066118;28;19925;-82
2023/04/15 00:19:24;;;;;;;;;;;;;;;9.31;89.72;98450.94;5067141;28;19931;-81
2023/04/15 00:21:50;;;;;;;;;;;;;;;9.21;90.94;98449.44;5066037;28;19960;-81
2023/04/15 00:24:15;;;;;;;;;;;;;;;9.21;92.08;98449.44;5065882;28;20006;-81
2023/04/15 00:26:41;;;;;;;;;;;;;;;9.19;92.35;98457.47;5064553;28;19999;-79
2023/04/15 00:29:07;;;;;;;;;;;;;;;9.20;92.27;98453.88;5051464;28;19920;-78
2023/04/15 00:31:34;;;;;;;;;;;;;;;9.14;93.36;98449.25;5066264;28;20018;-79
2023/04/15 00:34:01;;;;;;;;;;;;;;;9.18;92.32;98450.59;5068856;28;20375;-79
2023/04/15 00:36:26;;;;;;;;;;;;;;;9.05;94.23;98442.31;5050413;28;20102;-78
2023/04/15 00:38:52;;;;;;;;;;;;;;;9.00;93.58;98452.50;5065993;28;20012;-80
2023/04/15 00:41:18;;;;;;;;;;;;;;;8.68;96.45;98447.94;5050057;28;19929;-80
2023/04/15 00:43:43;;;;;;;;;;;;;;;8.68;96.23;98444.47;5067785;28;19928;-80
2023/04/15 00:46:11;;;;;;;;;;;;;;;8.67;95.54;98441.03;5066153;28;19921;-80
2023/04/15 00:48:37;;;;;;;;;;;;;;;8.60;96.10;98443.44;5070964;28;19928;-80
2023/04/15 00:51:03;;;;;;;;;;;;;;;8.45;96.44;98442.41;5065180;28;19917;-80
2023/04/15 00:53:28;;;;;;;;;;;;;;;8.04;98.89;98440.47;5048244;28;19930;-80
2023/04/15 00:55:54;;;;;;;;;;;;;;;7.71;100.00;98435.00;5065748;28;19920;-80
2023/04/15 00:58:20;;;;;;;;;;;;;;;7.40;100.00;98431.09;5061870;28;19993;-81
2023/04/15 01:00:45;;;;;;;;;;;;;;;7.21;100.00;98439.09;5047458;28;20467;-80
2023/04/15 01:03:11;;;;;;;;;;;;;;;7.24;100.00;98437.03;5059810;28;20011;-80
2023/04/15 01:05:37;;;;;;;;;;;;;;;7.30;100.00;98438.22;5049387;28;19927;-81
2023/04/15 01:08:02;;;;;;;;;;;;;;;7.16;100.00;98433.47;5067985;28;19920;-80
2023/04/15 01:10:28;;;;;;;;;;;;;;;6.99;100.00;98438.56;5061502;28;20499;-81
2023/04/15 01:12:53;;;;;;;;;;;;;;;6.96;100.00;98441.47;5046062;28;19921;-80
2023/04/15 01:15:19;;;;;;;;;;;;;;;7.17;100.00;98443.00;5047314;28;19974;-81
2023/04/15 01:17:45;;;;;;;;;;;;;;;7.32;100.00;98449.38;5045114;28;20281;-80
2023/04/15 01:20:11;;;;;;;;;;;;;;;7.45;100.00;98451.63;5064020;28;20043;-81
2023/04/15 01:22:37;;;;;;;;;;;;;;;7.58;100.00;98447.66;5064852;28;20032;-80
2023/04/15 01:25:10;;;;;;;;;;;;;;;7.62;100.00;98449.00;5043415;28;20039;-82
2023/04/15 01:27:38;;;;;;;;;;;;;;;7.67;100.00;98454.63;5060708;28;20427;-82
2023/04/15 01:30:04;;;;;;;;;;;;;;;7.72;100.00;98460.25;5065812;28;19920;-82
2023/04/15 01:32:31;;;;;;;;;;;;;;;7.70;100.00;98456.97;5046399;28;19920;-81
2023/04/15 01:34:56;;;;;;;;;;;;;;;7.63;100.00;98455.91;5045684;28;20365;-81
2023/04/15 01:37:23;;;;;;;;;;;;;;;7.65;100.00;98451.34;5046137;28;19932;-80
2023/04/15 01:39:49;;;;;;;;;;;;;;;7.69;100.00;98460.56;5059962;28;19925;-80
2023/04/15 01:42:15;;;;;;;;;;;;;;;7.75;100.00;98449.47;5065141;28;19920;-80
2023/04/15 01:44:41;;;;;;;;;;;;;;;7.80;100.00;98457.69;5058603;28;20373;-79
2023/04/15 01:47:09;;;;;;;;;;;;;;;7.90;100.00;98462.84;5042574;28;19959;-81
2023/04/15 01:49:35;;;;;;;;;;;;;;;7.88;100.00;98466.63;5046741;28;19979;-81
2023/04/15 01:52:00;;;;;;;;;;;;;;;7.77;100.00;98468.53;5061655;28;19920;-80
2023/04/15 01:54:26;;;;;;;;;;;;;;;7.79;100.00;98469.19;5062766;28;19978;-81
2023/04/15 01:56:52;;;;;;;;;;;;;;;7.86;100.00;98465.94;5044581;28;20330;-82
2023/04/15 01:59:17;;;;;;;;;;;;;;;7.86;100.00;98476.44;5043364;28;19921;-82
2023/04/15 02:01:44;;;;;;;;;;;;;;;7.82;100.00;98471.50;5046486;28;19921;-83
2023/04/15 02:04:15;;;;;;;;;;;;;;;7.85;100.00;98475.63;5061617;28;20432;-83
2023/04/15 02:06:40;;;;;;;;;;;;;;;7.76;100.00;98477.38;5043248;28;20295;-82
2023/04/15 02:09:06;;;;;;;;;;;;;;;7.71;100.00;98466.50;5041979;28;19921;-82
2023/04/15 02:11:31;;;;;;;;;;;;;;;7.74;100.00;98474.06;5047476;28;19931;-82
2023/04/15 02:13:57;;;;;;;;;;;;;;;7.56;100.00;98475.88;5044670;28;20344;-82
2023/04/15 02:16:24;;;;;;;;;;;;;;;7.63;100.00;98469.03;5056272;28;19920;-82
2023/04/15 02:18:50;;;;;;;;;;;;;;;7.63;100.00;98470.84;5057928;28;19916;-81
2023/04/15 02:21:17;;;;;;;;;;;;;;;7.62;100.00;98477.88;5060682;28;20347;-82
2023/04/15 02:23:43;;;;;;;;;;;;;;;7.54;100.00;98472.56;5060252;28;20031;-80
2023/04/15 02:26:11;;;;;;;;;;;;;;;7.51;100.00;98474.66;5061328;28;19924;-80
2023/04/15 02:28:37;;;;;;;;;;;;;;;7.46;100.00;98469.88;5060815;28;19920;-80
2023/04/15 02:31:06;;;;;;;;;;;;;;;7.43;100.00;98470.16;5062777;28;19920;-83
2023/04/15 02:33:31;;;;;;;;;;;;;;;7.39;100.00;98472.25;5056971;28;19921;-81
2023/04/15 02:35:58;;;;;;;;;;;;;;;7.30;100.00;98472.34;5046150;28;20336;-81
2023/04/15 02:38:24;;;;;;;;;;;;;;;7.18;100.00;98470.91;5043709;28;19943;-81
2023/04/15 02:40:50;;;;;;;;;;;;;;;7.21;100.00;98475.84;5058075;28;19921;-82
2023/04/15 02:43:18;;;;;;;;;;;;;;;7.19;100.00;98473.34;5060543;28;19963;-82
2023/04/15 02:45:45;;;;;;;;;;;;;;;7.03;100.00;98477.59;5060708;28;19920;-82
2023/04/15 02:48:10;;;;;;;;;;;;;;;6.90;100.00;98472.69;5044831;28;19924;-83
2023/04/15 02:50:38;;;;;;;;;;;;;;;6.64;100.00;98488.28;5059937;28;20067;-83
2023/04/15 02:53:04;;;;;;;;;;;;;;;6.56;100.00;98480.28;5045844;28;19920;-83
2023/04/15 02:55:30;;;;;;;;;;;;;;;6.44;100.00;98481.44;5046659;28;20055;-84
2023/04/15 02:57:57;;;;;;;;;;;;;;;6.41;100.00;98471.25;5043222;28;19998;-85
2023/04/15 03:00:24;;;;;;;;;;;;;;;6.36;100.00;98473.47;5062103;28;20019;-83
2023/04/15 03:02:55;;;;;;;;;;;;;;;6.51;100.00;98472.03;5046074;28;19924;-83
2023/04/15 03:05:22;;;;;;;;;;;;;;;6.65;100.00;98470.75;5061345;28;19928;-84
2023/04/15 03:07:49;;;;;;;;;;;;;;;6.65;100.00;98468.97;5043034;28;19940;-82
2023/04/15 03:10:15;;;;;;;;;;;;;;;6.73;100.00;98473.47;5059116;28;19921;-80
2023/04/15 03:12:40;;;;;;;;;;;;;;;6.72;100.00;98475.25;5042048;28;19964;-79
2023/04/15 03:15:08;;;;;;;;;;;;;;;6.77;100.00;98488.78;5042854;28;19921;-78
2023/04/15 03:17:37;;;;;;;;;;;;;;;6.64;100.00;98490.06;5060350;28;19921;-81
2023/04/15 03:20:04;;;;;;;;;;;;;;;6.22;100.00;98492.25;5045188;28;19927;-80
2023/04/15 03:22:33;;;;;;;;;;;;;;;6.13;100.00;98489.50;5063991;28;19930;-79
2023/04/15 03:24:58;;;;;;;;;;;;;;;5.93;100.00;98482.66;5057937;28;19967;-79
2023/04/15 03:27:24;;;;;;;;;;;;;;;5.76;100.00;98493.81;5058671;28;19924;-79
2023/04/15 03:29:49;;;;;;;;;;;;;;;5.77;100.00;98487.59;5059560;28;19979;-80
2023/04/15 03:32:16;;;;;;;;;;;;;;;5.82;100.00;98489.81;5042108;28;20007;-81
2023/04/15 03:34:42;;;;;;;;;;;;;;;5.75;100.00;98495.59;5062265;28;20020;-79
2023/04/15 03:37:07;;;;;;;;;;;;;;;5.87;100.00;98488.44;5043757;28;19963;-79
2023/04/15 03:39:33;;;;;;;;;;;;;;;5.98;100.00;98484.84;5059484;28;20020;-79
2023/04/15 03:41:58;;;;;;;;;;;;;;;6.05;100.00;98496.44;5063283;28;19924;-79
2023/04/15 03:44:25;;;;;;;;;;;;;;;6.07;100.00;98497.91;5060427;28;20266;-80
2023/04/15 03:46:50;;;;;;;;;;;;;;;6.01;100.00;98501.09;5062560;28;19921;-80
2023/04/15 03:49:16;;;;;;;;;;;;;;;6.06;100.00;98501.53;5060899;28;19932;-79
2023/04/15 03:51:41;;;;;;;;;;;;;;;6.05;100.00;98507.72;5055821;28;19920;-81
2023/04/15 03:54:06;;;;;;;;;;;;;;;6.03;100.00;98499.19;5058945;28;20338;-81
2023/04/15 03:56:32;;;;;;;;;;;;;;;5.62;100.00;98502.88;5061383;28;19949;-81
2023/04/15 03:58:57;;;;;;;;;;;;;;;5.58;100.00;98503.31;5058667;28;19951;-81
2023/04/15 04:01:22;;;;;;;;;;;;;;;5.42;100.00;98503.00;5062399;28;20417;-78
2023/04/15 04:03:48;;;;;;;;;;;;;;;5.36;100.00;98499.94;5060095;28;19921;-81
2023/04/15 04:06:13;;;;;;;;;;;;;;;5.31;100.00;98507.38;5060629;28;20401;-79
2023/04/15 04:08:39;;;;;;;;;;;;;;;5.25;100.00;98513.16;5061823;28;20377;-80
2023/04/15 04:11:04;;;;;;;;;;;;;;;5.30;100.00;98508.34;5060921;28;19916;-79
2023/04/15 04:13:29;;;;;;;;;;;;;;;5.28;100.00;98515.50;5056917;28;19927;-81
2023/04/15 04:15:55;;;;;;;;;;;;;;;5.36;100.00;98515.66;5045198;28;19929;-83
2023/04/15 04:18:20;;;;;;;;;;;;;;;5.38;100.00;98517.31;5055632;28;19916;-83
2023/04/15 04:20:46;;;;;;;;;;;;;;;5.27;100.00;98516.47;5043969;28;19928;-83
2023/04/15 04:23:11;;;;;;;;;;;;;;;4.94;100.00;98520.25;5059643;28;19968;-84
2023/04/15 04:25:36;;;;;;;;;;;;;;;4.90;100.00;98525.84;5061731;28;20324;-85
2023/04/15 04:28:02;;;;;;;;;;;;;;;4.97;100.00;98516.53;5076049;28;19921;-86
2023/04/15 04:30:27;;;;;;;;;;;;;;;5.03;100.00;98525.63;5068630;28;20121;-85
2023/04/15 04:32:53;;;;;;;;;;;;;;;4.80;100.00;98538.06;5061463;28;19921;-84
2023/04/15 04:35:18;;;;;;;;;;;;;;;4.76;100.00;98536.69;5055443;28;20027;-84
2023/04/15 04:37:43;;;;;;;;;;;;;;;4.86;100.00;98529.69;5054563;28;19928;-84
2023/04/15 04:40:09;;;;;;;;;;;;;;;4.94;100.00;98537.72;5043236;28;20031;-88
2023/04/15 04:42:35;;;;;;;;;;;;;;;4.88;100.00;98531.22;5061038;28;19924;-87
2023/04/15 04:45:00;;;;;;;;;;;;;;;4.92;100.00;98531.78;5079361;28;19929;-83
2023/04/15 04:47:25;;;;;;;;;;;;;;;4.90;100.00;98528.47;5079365;28;19928;-82
2023/04/15 04:49:51;;;;;;;;;;;;;;;5.06;100.00;98528.81;5042805;28;19927;-84
2023/04/15 04:52:16;;;;;;;;;;;;;;;5.11;100.00;98531.84;5064267;28;20270;-85
2023/04/15 04:54:41;;;;;;;;;;;;;;;5.13;100.00;98529.91;5042641;28;20000;-85
2023/04/15 04:57:07;;;;;;;;;;;;;;;5.16;100.00;98542.75;5062855;28;19928;-85
2023/04/15 04:59:32;;;;;;;;;;;;;;;5.12;100.00;98543.97;5063712;28;20686;-87
2023/04/15 05:01:57;;;;;;;;;;;;;;;4.90;100.00;98554.59;5063253;28;19924;-84
2023/04/15 05:04:23;;;;;;;;;;;;;;;5.01;100.00;98554.50;5046727;28;19928;-86
2023/04/15 05:06:50;;;;;;;;;;;;;;;5.00;100.00;98555.50;5063374;28;19924;-85
2023/04/15 05:09:15;;;;;;;;;;;;;;;4.83;100.00;98556.13;5046720;28;19921;-86
2023/04/15 05:11:41;;;;;;;;;;;;;;;4.44;100.00;98568.97;5064870;28;19936;-86
2023/04/15 05:14:06;;;;;;;;;;;;;;;4.43;100.00;98572.53;5062049;28;20012;-88
2023/04/15 05:16:32;;;;;;;;;;;;;;;4.33;100.00;98569.03;5050365;28;19984;-83
2023/04/15 05:18:57;;;;;;;;;;;;;;;4.34;100.00;98567.25;5061893;28;19924;-83
2023/04/15 05:21:22;;;;;;;;;;;;;;;4.41;100.00;98569.22;5061066;28;19928;-85
2023/04/15 05:23:48;;;;;;;;;;;;;;;4.54;100.00;98577.66;5046204;28;19927;-84
2023/04/15 05:26:13;;;;;;;;;;;;;;;4.64;100.00;98584.75;5061330;28;20452;-85
2023/04/15 05:28:38;;;;;;;;;;;;;;;4.68;100.00;98588.75;5047339;28;20403;-85
2023/04/15 05:31:04;;;;;;;;;;;;;;;4.59;100.00;98597.38;5047284;28;19959;-85
2023/04/15 05:33:30;;;;;;;;;;;;;;;4.42;100.00;98596.97;5062360;28;19942;-85
2023/04/15 05:35:55;;;;;;;;;;;;;;;4.71;100.00;98601.56;5069485;28;20003;-88
2023/04/15 05:38:20;;;;;;;;;;;;;;;4.83;100.00;98600.53;5064952;28;20326;-84
2023/04/15 05:40:46;;;;;;;;;;;;;;;5.06;100.00;98596.81;5065185;28;20373;-85
2023/04/15 05:43:11;;;;;;;;;;;;;;;5.16;100.00;98597.66;5063992;28;19924;-85
2023/04/15 05:45:37;;;;;;;;;;;;;;;5.19;100.00;98602.59;5045766;28;19966;-86
2023/04/15 05:48:02;;;;;;;;;;;;;;;5.29;100.00;98603.50;5060081;28;19920;-86
2023/04/15 05:50:28;;;;;;;;;;;;;;;5.32;100.00;98607.63;5064909;28;19927;-81
2023/04/15 05:52:54;;;;;;;;;;;;;;;5.45;100.00;98607.38;5060676;28;19921;-83
2023/04/15 05:55:20;;;;;;;;;;;;;;;5.57;100.00;98614.16;5065205;28;19928;-84
2023/04/15 05:57:46;;;;;;;;;;;;;;;5.62;100.00;98614.59;5066224;28;19927;-86
2023/04/15 06:00:12;;;;;;;;;;;;;;;5.71;100.00;98613.78;5061127;28;20026;-85
2023/04/15 06:02:37;;;;;;;;;;;;;;;5.77;100.00;98608.03;5060503;28;19921;-90
2023/04/15 06:05:03;;;;;;;;;;;;;;;5.77;100.00;98592.31;5062899;28;19920;-86
2023/04/15 06:07:29;;;;;;;;;;;;;;;5.91;100.00;98589.31;5048386;28;19924;-89
2023/04/15 06:09:55;;;;;;;;;;;;;;;6.07;100.00;98592.19;5025451;28;19935;-87
2023/04/15 06:12:21;;;;;;;;;;;;;;;6.20;100.00;98584.06;5042966;28;20355;-86
2023/04/15 06:14:47;;;;;;;;;;;;;;;6.32;100.00;98582.97;5064387;28;19920;-87
2023/04/15 06:17:13;;;;;;;;;;;;;;;6.47;100.00;98586.00;5063251;28;20312;-87
2023/04/15 06:19:39;;;;;;;;;;;;;;;6.61;100.00;98588.16;5042006;28;19928;-91
2023/04/15 06:22:06;;;;;;;;;;;;;;;6.71;100.00;98594.22;5060060;28;20055;-90
2023/04/15 06:24:32;;;;;;;;;;;;;;;6.71;100.00;98604.72;5049301;28;20012;-88
2023/04/15 06:26:57;;;;;;;;;;;;;;;6.79;100.00;98606.59;5050984;28;19920;-90
2023/04/15 06:29:22;;;;;;;;;;;;;;;6.84;100.00;98609.63;5077086;28;19921;-88
2023/04/15 06:31:50;;;;;;;;;;;;;;;6.93;100.00;98600.91;5067594;28;19925;-88
2023/04/15 06:34:15;;;;;;;;;;;;;;;7.09;100.00;98592.44;5052666;28;20011;-86
2023/04/15 06:36:40;;;;;;;;;;;;;;;7.27;100.00;98598.56;5074792;28;19920;-89
2023/04/15 06:39:05;;;;;;;;;;;;;;;7.37;100.00;98609.84;5066237;28;19916;-88
2023/04/15 06:41:31;;;;;;;;;;;;;;;7.56;100.00;98617.63;5063093;28;19920;-87
2023/04/15 06:43:56;;;;;;;;;;;;;;;7.69;100.00;98623.38;5062921;28;20010;-85
2023/04/15 06:46:22;;;;;;;;;;;;;;;7.77;100.00;98620.84;5061405;28;20384;-86
2023/04/15 06:48:47;;;;;;;;;;;;;;;7.91;100.00;98618.66;5059275;28;19920;-84
2023/04/15 06:51:13;;;;;;;;;;;;;;;8.03;100.00;98627.97;5041791;28;20292;-86
2023/04/15 06:53:40;;;;;;;;;;;;;;;8.01;100.00;98622.88;5062481;28;19924;-84
2023/04/15 06:56:06;;;;;;;;;;;;;;;8.14;99.31;98617.25;5044268;28;19920;-84
2023/04/15 06:58:31;;;;;;;;;;;;;;;8.19;98.94;98607.09;5059520;28;19916;-89
2023/04/15 07:00:57;;;;;;;;;;;;;;;8.36;98.38;98608.97;5063020;28;19955;-86
2023/04/15 07:03:24;;;;;;;;;;;;;;;8.51;97.15;98609.22;5056732;28;19921;-91
2023/04/15 07:05:51;;;;;;;;;;;;;;;8.65;96.81;98621.00;5066624;28;19923;-82
2023/04/15 07:08:17;;;;;;;;;;;;;;;8.74;97.04;98609.56;5075079;28;19912;-82
2023/04/15 07:10:43;;;;;;;;;;;;;;;8.87;95.66;98609.97;5081862;28;19916;-87
2023/04/15 07:13:08;;;;;;;;;;;;;;;9.07;94.85;98614.06;5074755;28;19923;-91
2023/04/15 07:15:34;;;;;;;;;;;;;;;9.21;94.54;98605.56;5074796;28;19971;-90
2023/04/15 07:17:59;;;;;;;;;;;;;;;9.34;94.29;98607.75;5069794;28;19961;-92
2023/04/15 07:20:25;;;;;;;;;;;;;;;9.44;93.30;98609.28;5066653;28;19985;-88
2023/04/15 07:22:50;;;;;;;;;;;;;;;9.62;92.48;98605.72;5073197;28;19920;-87
2023/04/15 07:25:16;;;;;;;;;;;;;;;9.80;92.03;98603.81;5066686;28;19925;-86
2023/04/15 07:27:42;;;;;;;;;;;;;;;9.95;91.30;98594.31;5043314;28;20285;-85
2023/04/15 07:30:08;;;;;;;;;;;;;;;10.13;90.43;98600.22;5063910;28;19927;-81
2023/04/15 07:32:34;;;;;;;;;;;;;;;10.30;90.11;98600.31;5058867;28;19982;-84
2023/04/15 07:34:59;;;;;;;;;;;;;;;10.44;89.48;98603.09;5058159;28;20352;-86
2023/04/15 07:37:24;;;;;;;;;;;;;;;10.59;88.21;98603.28;5063674;28;20335;-89
2023/04/15 07:39:50;;;;;;;;;;;;;;;10.67;85.54;98597.97;5061673;28;19931;-89
2023/04/15 07:42:15;;;;;;;;;;;;;;;10.77;85.72;98595.16;5047024;28;20004;-86
2023/04/15 07:44:40;;;;;;;;;;;;;;;10.90;84.90;98595.47;5035433;28;19921;-81
2023/04/15 07:47:06;;;;;;;;;;;;;;;10.96;83.12;98598.25;5059186;28;19928;-87
2023/04/15 07:49:31;;;;;;;;;;;;;;;11.05;81.67;98602.53;5050456;28;20399;-86
2023/04/15 07:51:58;;;;;;;;;;;;;;;11.20;81.91;98591.25;5058336;28;20396;-80
2023/04/15 07:54:24;;;;;;;;;;;;;;;11.33;81.07;98583.63;5060656;28;19921;-88
2023/04/15 07:56:50;;;;;;;;;;;;;;;11.46;81.07;98583.91;5060601;28;20390;-86
2023/04/15 07:59:16;;;;;;;;;;;;;;;11.54;79.93;98586.53;5058920;28;19944;-89
2023/04/15 08:01:42;;;;;;;;;;;;;;;11.63;79.58;98585.47;5063062;28;20011;-88
2023/04/15 08:04:08;;;;;;;;;;;;;;;11.73;79.25;98575.53;5059910;28;19920;-90
2023/04/15 08:06:33;;;;;;;;;;;;;;;11.86;79.30;98581.09;5039799;28;19928;-89
2023/04/15 08:08:59;;;;;;;;;;;;;;;11.90;79.66;98570.97;5065287;28;19928;-90
2023/04/15 08:11:25;;;;;;;;;;;;;;;11.99;79.06;98580.50;5050791;28;19928;-87
2023/04/15 08:13:51;;;;;;;;;;;;;;;12.07;79.29;98571.72;5067644;28;19986;-87
2023/04/15 08:16:17;;;;;;;;;;;;;;;12.14;79.87;98567.34;5061809;28;19921;-83
2023/04/15 08:18:42;;;;;;;;;;;;;;;12.24;80.11;98574.06;5029716;28;20005;-83
2023/04/15 08:21:09;;;;;;;;;;;;;;;12.34;80.72;98576.47;5032704;28;20385;-86
2023/04/15 08:23:34;;;;;;;;;;;;;;;12.44;80.58;98568.25;5059271;28;19958;-85
2023/04/15 08:25:59;;;;;;;;;;;;;;;12.50;81.82;98573.66;5067282;28;20058;-87
2023/04/15 08:28:25;;;;;;;;;;;;;;;12.56;81.06;98567.66;5065709;28;20381;-89
2023/04/15 08:30:52;;;;;;;;;;;;;;;12.67;83.16;98579.63;5026663;28;19925;-83
2023/04/15 08:33:17;;;;;;;;;;;;;;;12.71;84.47;98570.34;5064786;28;19932;-85
2023/04/15 08:35:43;;;;;;;;;;;;;;;12.81;86.67;98559.50;5066778;28;20332;-89
2023/04/15 08:38:08;;;;;;;;;;;;;;;12.95;91.94;98550.75;5028952;28;20404;-83
2023/04/15 08:40:39;;;;;;;;;;;;;;;13.12;89.97;98552.25;5059615;28;19920;-84
2023/04/15 08:43:06;;;;;;;;;;;;;;;13.25;88.76;98554.25;5040320;28;20384;-79
2023/04/15 08:45:32;;;;;;;;;;;;;;;13.35;88.66;98558.25;5063388;28;19927;-81
2023/04/15 08:47:58;;;;;;;;;;;;;;;13.42;87.58;98556.53;5064586;28;20398;-79
2023/04/15 08:50:24;;;;;;;;;;;;;;;13.46;86.60;98563.09;5065999;28;19925;-87
2023/04/15 08:52:52;;;;;;;;;;;;;;;13.50;86.68;98561.69;5064337;28;19924;-83
2023/04/15 08:55:18;;;;;;;;;;;;;;;13.58;85.69;98557.31;5065160;28;19925;-85
2023/04/15 08:57:44;;;;;;;;;;;;;;;13.66;85.11;98555.38;5040031;28;19931;-83
2023/04/15 09:00:09;;;;;;;;;;;;;;;13.76;84.45;98560.38;5062212;28;19916;-83
2023/04/15 09:02:35;;;;;;;;;;;;;;;13.80;83.94;98553.69;5062458;28;19928;-82
2023/04/15 09:05:03;;;;;;;;;;;;;;;13.87;83.14;98551.94;5062787;28;19916;-81
2023/04/15 09:07:29;;;;;;;;;;;;;;;13.92;83.20;98546.88;5060801;28;19944;-83
2023/04/15 09:09:54;;;;;;;;;;;;;;;13.84;83.44;98547.00;5078287;28;19921;-84
2023/04/15 09:12:19;;;;;;;;;;;;;;;13.87;83.56;98536.00;5067723;28;19916;-91
2023/04/15 09:14:47;;;;;;;;;;;;;;;14.00;83.24;98535.34;5046173;28;19988;-91
2023/04/15 09:17:17;;;;;;;;;;;;;;;14.11;83.69;98533.00;5051837;28;19921;-86
2023/04/15 09:19:42;;;;;;;;;;;;;;;14.23;83.75;98531.47;5078116;28;19988;-84
2023/04/15 09:22:08;;;;;;;;;;;;;;;14.34;84.19;98530.94;5066950;28;19923;-85
2023/04/15 09:24:38;;;;;;;;;;;;;;;14.46;83.95;98525.16;5073988;28;19913;-84
2023/04/15 09:27:05;;;;;;;;;;;;;;;14.55;84.06;98521.34;5082740;28;19993;-88
2023/04/15 09:29:31;;;;;;;;;;;;;;;14.60;83.51;98522.41;5055632;28;19908;-84
2023/04/15 09:31:57;;;;;;;;;;;;;;;14.61;83.65;98523.22;5090893;28;20015;-84
2023/04/15 09:34:33;;;;;;;;;;;;;;;14.40;84.89;98520.63;5051515;28;19924;-92
2023/04/15 09:36:59;;;;;;;;;;;;;;;14.39;85.55;98511.00;5075448;28;20022;-92
2023/04/15 09:39:25;;;;;;;;;;;;;;;14.45;85.87;98502.28;5062611;28;19971;-91
2023/04/15 09:42:22;;;;;;;;;;;;;;;14.51;86.13;98506.81;5047768;28;19955;-89
2023/04/15 09:44:50;;;;;;;;;;;;;;;14.61;86.19;98502.78;5059512;28;19920;-90
2023/04/15 09:47:30;;;;;;;;;;;;;;;14.72;86.43;98498.81;5091557;28;19948;-90
2023/04/15 09:50:00;;;;;;;;;;;;;;;14.92;85.94;98499.72;5061539;28;20418;-89
2023/04/15 09:52:26;;;;;;;;;;;;;;;15.10;84.74;98500.03;5050651;28;19921;-88
2023/04/15 09:54:58;;;;;;;;;;;;;;;15.22;83.86;98499.47;5064630;28;19921;-90
2023/04/15 09:57:23;;;;;;;;;;;;;;;15.30;84.03;98494.81;5045961;28;20389;-89
2023/04/15 09:59:49;;;;;;;;;;;;;;;15.48;83.47;98488.94;5063600;28;19986;-90
2023/04/15 10:02:15;;;;;;;;;;;;;;;15.60;82.27;98486.56;5030603;28;20015;-90
2023/04/15 10:04:40;;;;;;;;;;;;;;;15.72;81.73;98480.47;5026618;28;20292;-90
2023/04/15 10:07:08;;;;;;;;;;;;;;;15.88;81.32;98480.06;5032901;28;19920;-89
2023/04/15 10:09:35;;;;;;;;;;;;;;;15.86;81.53;98476.78;5045779;28;19920;-89
2023/04/15 10:12:03;;;;;;;;;;;;;;;15.87;82.49;98473.09;5048924;28;19935;-91
2023/04/15 10:14:31;;;;;;;;;;;;;;;15.97;82.26;98467.38;5062257;28;19928;-91
2023/04/15 10:16:58;;;;;;;;;;;;;;;16.11;81.32;98470.88;5036724;28;19920;-89
2023/04/15 10:19:25;;;;;;;;;;;;;;;16.24;80.34;98458.41;5045940;28;19977;-89
2023/04/15 10:21:51;;;;;;;;;;;;;;;16.34;79.45;98461.47;5064810;28;19921;-89
2023/04/15 10:24:16;;;;;;;;;;;;;;;16.42;79.17;98460.44;5065257;28;19921;-89
2023/04/15 10:26:43;;;;;;;;;;;;;;;16.52;79.16;98450.16;5066634;28;19921;-91
2023/04/15 10:29:09;;;;;;;;;;;;;;;16.68;79.96;98449.75;5030775;28;20011;-89
2023/04/15 10:31:37;;;;;;;;;;;;;;;16.91;79.45;98443.94;5063174;28;19932;-89
2023/04/15 10:34:05;;;;;;;;;;;;;;;17.05;78.45;98439.41;5071049;28;19963;-91
2023/04/15 10:36:31;;;;;;;;;;;;;;;17.03;77.92;98441.44;5084841;28;19932;-90
2023/04/15 10:38:56;;;;;;;;;;;;;;;16.95;77.83;98439.84;5069932;28;19945;-91
2023/04/15 10:41:26;;;;;;;;;;;;;;;16.90;78.12;98442.34;5072466;28;19931;-89
2023/04/15 10:43:52;;;;;;;;;;;;;;;16.84;79.04;98431.69;5077853;28;19927;-89
2023/04/15 10:46:19;;;;;;;;;;;;;;;16.91;79.00;98437.81;5048949;28;20385;-90
2023/04/15 10:48:48;;;;;;;;;;;;;;;16.94;79.15;98437.41;5044638;28;19928;-89
2023/04/15 10:51:14;;;;;;;;;;;;;;;16.97;79.14;98432.44;5036198;28;20610;-90
2023/04/15 10:53:41;;;;;;;;;;;;;;;16.99;78.81;98434.91;5057108;28;19970;-87
2023/04/15 10:56:06;;;;;;;;;;;;;;;16.97;78.42;98426.31;5062682;28;20007;-89
2023/04/15 10:58:41;;;;;;;;;;;;;;;16.92;79.04;98434.13;5063474;28;20005;-88
2023/04/15 11:01:07;;;;;;;;;;;;;;;16.90;78.44;98425.53;5061357;28;19979;-88
2023/04/15 11:03:41;;;;;;;;;;;;;;;16.81;76.99;98424.09;5052350;28;19991;-90
2023/04/15 11:06:07;;;;;;;;;;;;;;;16.87;77.37;98425.94;5046921;28;19920;-89
2023/04/15 11:08:51;;;;;;;;;;;;;;;16.85;79.12;98431.47;5060796;28;19931;-89
2023/04/15 11:11:16;;;;;;;;;;;;;;;16.77;80.11;98432.53;5061317;28;19931;-90
2023/04/15 11:13:49;;;;;;;;;;;;;;;16.83;80.50;98432.72;5069095;28;19921;-89
2023/04/15 11:16:14;;;;;;;;;;;;;;;16.76;80.06;98428.22;5020670;28;20650;-90
2023/04/15 11:18:41;;;;;;;;;;;;;;;16.83;80.09;98435.38;5041611;28;20380;-89
2023/04/15 11:21:08;;;;;;;;;;;;;;;16.91;79.32;98433.28;5049421;28;19929;-90
2023/04/15 11:23:45;;;;;;;;;;;;;;;16.95;79.01;98428.38;5061575;28;19920;-90
2023/04/15 11:26:11;;;;;;;;;;;;;;;16.93;79.86;98430.44;5056055;28;20383;-87
2023/04/15 11:28:39;;;;;;;;;;;;;;;16.94;79.59;98429.41;5072610;22;19970;-84
2023/04/15 11:31:16;;;;;;;;;;;;;;;16.90;80.14;98425.53;5039255;28;19925;-87
2023/04/15 11:34:01;;;;;;;;;;;;;;;16.91;79.54;98437.81;5034407;28;19922;-89
2023/04/15 11:36:28;;;;;;;;;;;;;;;16.88;80.10;98432.91;5041842;28;20012;-87
2023/04/15 11:38:54;;;;;;;;;;;;;;;16.87;80.36;98425.94;5041770;28;19971;-88
2023/04/15 11:41:22;;;;;;;;;;;;;;;16.84;80.53;98437.84;5036956;28;19925;-88
2023/04/15 11:43:49;;;;;;;;;;;;;;;16.85;80.51;98434.13;5043268;28;19970;-88
2023/04/15 11:46:15;;;;;;;;;;;;;;;16.88;81.69;98438.22;5043576;28;19925;-87
2023/04/15 11:48:42;;;;;;;;;;;;;;;16.89;80.10;98434.56;5041393;28;19917;-87
2023/04/15 11:51:07;;;;;;;;;;;;;;;16.89;79.05;98439.88;5038676;28;19924;-86
2023/04/15 11:53:39;;;;;;;;;;;;;;;16.92;79.18;98434.13;5042606;28;20288;-85
2023/04/15 11:56:05;;;;;;;;;;;;;;;16.91;78.96;98443.94;5035681;28;19921;-87
2023/04/15 11:58:33;;;;;;;;;;;;;;;16.94;78.59;98437.41;5046262;28;20018;-85
2023/04/15 12:00:59;;;;;;;;;;;;;;;16.96;77.94;98440.69;5039512;28;19922;-86
2023/04/15 12:03:26;;;;;;;;;;;;;;;17.02;77.84;98445.16;5046027;28;19921;-87
2023/04/15 12:06:04;;;;;;;;;;;;;;;17.04;77.74;98443.91;5040944;28;19972;-88
2023/04/15 12:08:48;;;;;;;;;;;;;;;17.05;77.58;98450.06;5026741;28;19935;-86
2023/04/15 12:11:16;;;;;;;;;;;;;;;17.15;77.40;98450.44;5038867;28;19975;-87
2023/04/15 12:13:49;;;;;;;;;;;;;;;17.23;77.10;98450.19;5040237;28;19928;-87
2023/04/15 12:16:18;;;;;;;;;;;;;;;17.31;74.48;98449.97;5041350;28;19951;-87
2023/04/15 12:18:44;;;;;;;;;;;;;;;17.39;73.60;98447.03;5042940;28;19921;-88
2023/04/15 12:21:10;;;;;;;;;;;;;;;17.48;73.24;98451.09;5022686;28;19931;-87
2023/04/15 12:23:37;;;;;;;;;;;;;;;17.46;72.52;98450.50;5034239;28;19925;-88
2023/04/15 12:26:04;;;;;;;;;;;;;;;17.52;71.98;98452.31;5041655;28;19937;-86
2023/04/15 12:28:29;;;;;;;;;;;;;;;17.58;71.37;98445.28;5041299;28;19935;-86
2023/04/15 12:30:55;;;;;;;;;;;;;;;17.57;70.20;98444.47;5043442;28;19920;-86
2023/04/15 12:33:20;;;;;;;;;;;;;;;17.51;69.98;98448.00;5038233;28;19921;-87
2023/04/15 12:35:46;;;;;;;;;;;;;;;17.48;70.46;98451.09;5027511;28;19921;-87
2023/04/15 12:38:11;;;;;;;;;;;;;;;17.50;70.16;98458.88;5040441;28;20305;-88
2023/04/15 12:40:36;;;;;;;;;;;;;;;17.27;69.85;98454.06;5038968;28;19932;-87
2023/04/15 12:43:02;;;;;;;;;;;;;;;17.19;70.51;98457.00;5036169;28;20343;-87
2023/04/15 12:45:28;;;;;;;;;;;;;;;17.12;71.16;98461.53;5039732;28;19932;-85